Time;durP1;ratioP1;P1;durP2;ratioP2;P2;SDS_P1;SDS_P2;PMS_P1;PMS_P2;Temp;Humidity;BMP_temperature;BMP_pressure;BME280_temperature;BME280_humidity;BME280_pressure;Samples;Min_cycle;Max_cycle;Signal;HPM_P1;HPM_P2
2021/08/11 00:00:25;;;;;;;5.35;4.30;;;24.50;65.60;;;;;;5035832;28;20040;-39
2021/08/11 00:02:51;;;;;;;6.97;4.60;;;24.50;65.80;;;;;;5035588;28;20025;-38
2021/08/11 00:05:17;;;;;;;5.38;4.32;;;24.40;65.80;;;;;;5035911;28;20030;-38
2021/08/11 00:07:42;;;;;;;6.20;4.88;;;24.40;65.90;;;;;;5039567;28;20479;-38
2021/08/11 00:10:09;;;;;;;5.95;4.30;;;24.40;66.00;;;;;;5039697;28;20033;-38
2021/08/11 00:12:35;;;;;;;10.95;5.07;;;24.40;66.10;;;;;;5039506;28;20116;-38
2021/08/11 00:15:01;;;;;;;5.53;4.40;;;24.40;66.30;;;;;;5039355;28;20045;-38
2021/08/11 00:17:27;;;;;;;8.27;4.65;;;24.30;66.40;;;;;;5039225;28;20440;-42
2021/08/11 00:19:52;;;;;;;7.57;4.63;;;24.30;66.50;;;;;;5039294;28;20080;-37
2021/08/11 00:22:18;;;;;;;8.65;4.68;;;24.20;66.60;;;;;;5039326;28;20034;-38
2021/08/11 00:24:44;;;;;;;7.88;4.78;;;24.20;66.70;;;;;;5039224;28;20030;-37
2021/08/11 00:27:10;;;;;;;6.13;4.43;;;24.20;66.80;;;;;;5039044;28;20044;-38
2021/08/11 00:29:35;;;;;;;9.35;4.78;;;24.10;66.90;;;;;;5039182;28;20117;-37
2021/08/11 00:32:01;;;;;;;5.85;4.75;;;24.10;67.00;;;;;;5039149;28;20433;-37
2021/08/11 00:34:27;;;;;;;6.15;4.70;;;24.10;67.10;;;;;;5039211;28;20026;-38
2021/08/11 00:36:54;;;;;;;6.00;4.40;;;24.10;67.20;;;;;;5038901;28;20037;-38
2021/08/11 00:39:19;;;;;;;8.13;4.72;;;24.00;67.20;;;;;;5039021;28;20032;-38
2021/08/11 00:41:45;;;;;;;5.68;4.45;;;24.00;67.30;;;;;;5038961;28;20320;-38
2021/08/11 00:44:12;;;;;;;7.68;4.68;;;24.00;67.40;;;;;;5039125;28;20032;-38
2021/08/11 00:46:45;;;;;;;7.38;4.18;;;24.00;67.50;;;;;;5038542;28;20341;-38
2021/08/11 00:49:13;;;;;;;8.30;4.45;;;24.00;67.60;;;;;;5038610;28;20026;-38
2021/08/11 00:51:40;;;;;;;7.82;4.82;;;24.00;67.80;;;;;;5038819;28;20057;-38
2021/08/11 00:54:07;;;;;;;8.85;4.93;;;23.90;67.80;;;;;;5039188;28;20406;-38
2021/08/11 00:56:34;;;;;;;5.78;4.40;;;23.90;67.90;;;;;;5038494;28;20508;-38
2021/08/11 00:59:04;;;;;;;5.25;4.28;;;23.90;67.90;;;;;;5038602;28;20033;-38
2021/08/11 01:01:36;;;;;;;9.07;4.75;;;23.90;68.00;;;;;;5037971;28;20366;-38
2021/08/11 01:04:02;;;;;;;6.47;4.78;;;23.90;68.10;;;;;;5038454;28;20025;-38
2021/08/11 01:06:30;;;;;;;6.05;4.32;;;23.90;68.30;;;;;;5038617;28;20084;-38
2021/08/11 01:08:56;;;;;;;7.10;4.95;;;23.90;68.40;;;;;;5038649;28;20329;-38
2021/08/11 01:11:24;;;;;;;6.82;5.28;;;23.90;68.50;;;;;;5038645;28;20038;-38
2021/08/11 01:13:50;;;;;;;8.80;5.00;;;23.90;68.50;;;;;;5038229;28;20072;-38
2021/08/11 01:16:16;;;;;;;8.82;5.13;;;23.80;68.60;;;;;;5037297;28;20099;-38
2021/08/11 01:18:42;;;;;;;9.38;5.13;;;23.80;68.60;;;;;;5038041;28;20112;-39
2021/08/11 01:21:23;;;;;;;7.80;4.85;;;23.80;68.70;;;;;;5038369;28;20038;-38
2021/08/11 01:23:49;;;;;;;6.35;5.15;;;23.80;68.70;;;;;;5038425;28;20268;-39
2021/08/11 01:26:23;;;;;;;6.13;4.88;;;23.80;68.70;;;;;;5038416;28;20064;-38
2021/08/11 01:28:58;;;;;;;7.75;5.22;;;23.80;68.80;;;;;;5037903;28;20025;-38
2021/08/11 01:31:42;;;;;;;8.40;5.00;;;23.80;68.90;;;;;;5038262;28;20193;-38
2021/08/11 01:34:14;;;;;;;7.30;5.35;;;23.80;68.90;;;;;;5038161;28;20364;-39
2021/08/11 01:37:00;;;;;;;8.52;5.05;;;23.70;68.90;;;;;;5037581;28;20120;-38
2021/08/11 01:39:26;;;;;;;7.80;5.10;;;23.70;69.00;;;;;;5037986;28;20113;-39
2021/08/11 01:42:07;;;;;;;8.45;5.13;;;23.70;69.00;;;;;;5037758;28;20112;-38
2021/08/11 01:44:41;;;;;;;7.28;5.03;;;23.70;69.00;;;;;;5038172;28;20037;-38
2021/08/11 01:47:12;;;;;;;6.43;5.30;;;23.60;69.10;;;;;;5037810;28;20124;-38
2021/08/11 01:49:39;;;;;;;8.20;5.57;;;23.60;69.10;;;;;;5037673;28;20033;-38
2021/08/11 01:52:06;;;;;;;8.82;5.28;;;23.60;69.20;;;;;;5037278;28;20033;-38
2021/08/11 01:54:35;;;;;;;9.00;5.22;;;23.60;69.20;;;;;;5037722;28;20188;-38
2021/08/11 01:57:03;;;;;;;8.20;4.70;;;23.60;69.30;;;;;;5037166;28;20033;-39
2021/08/11 01:59:29;;;;;;;8.32;4.82;;;23.60;69.20;;;;;;5037237;28;20068;-39
2021/08/11 02:01:54;;;;;;;8.13;4.70;;;23.60;69.20;;;;;;5037021;28;20422;-38
2021/08/11 02:04:21;;;;;;;13.23;4.93;;;23.60;69.20;;;;;;5037216;28;20324;-38
2021/08/11 02:06:48;;;;;;;7.82;4.68;;;23.50;69.20;;;;;;5036564;28;20071;-38
2021/08/11 02:09:17;;;;;;;7.03;4.72;;;23.50;69.40;;;;;;5036630;28;20022;-38
2021/08/11 02:11:42;;;;;;;7.53;5.15;;;23.50;69.50;;;;;;5036707;28;20049;-37
2021/08/11 02:14:09;;;;;;;7.50;5.10;;;23.50;69.60;;;;;;5036787;28;20337;-38
2021/08/11 02:16:38;;;;;;;9.52;5.43;;;23.40;69.60;;;;;;5036208;28;20432;-38
2021/08/11 02:19:04;;;;;;;11.82;6.03;;;23.40;69.80;;;;;;5036925;28;20453;-38
2021/08/11 02:21:30;;;;;;;5.78;4.90;;;23.40;69.80;;;;;;5036635;28;20124;-37
2021/08/11 02:23:55;;;;;;;10.00;5.38;;;23.40;69.90;;;;;;5037087;28;20108;-38
2021/08/11 02:26:36;;;;;;;8.32;4.70;;;23.30;70.00;;;;;;5037102;28;20050;-39
2021/08/11 02:29:32;;;;;;;8.02;5.22;;;23.30;70.20;;;;;;5036146;28;20413;-38
2021/08/11 02:32:04;;;;;;;5.93;5.07;;;23.30;70.20;;;;;;5036700;28;20041;-38
2021/08/11 02:34:57;;;;;;;7.75;5.50;;;23.30;70.40;;;;;;5036709;28;20033;-38
2021/08/11 02:37:45;;;;;;;6.90;5.38;;;23.30;70.50;;;;;;5036831;28;20077;-38
2021/08/11 02:40:36;;;;;;;6.97;5.00;;;23.30;70.60;;;;;;5036839;28;20144;-38
2021/08/11 02:43:05;;;;;;;;;;;23.30;70.60;;;;;;5036856;28;20026;-38
2021/08/11 02:45:32;;;;;;;7.30;5.50;;;23.20;70.30;;;;;;5036422;28;19916;-37
2021/08/11 02:48:00;;;;;;;6.78;5.72;;;23.10;70.70;;;;;;5036644;28;20056;-39
2021/08/11 02:50:26;;;;;;;8.02;4.88;;;23.20;70.90;;;;;;5036878;28;20347;-38
2021/08/11 02:52:53;;;;;;;10.93;5.35;;;23.10;70.90;;;;;;5036349;28;20083;-39
2021/08/11 02:55:20;;;;;;;10.57;5.75;;;23.10;71.10;;;;;;5036197;28;20116;-37
2021/08/11 02:57:48;;;;;;;9.50;5.00;;;23.10;71.10;;;;;;5036291;28;20104;-37
2021/08/11 03:00:15;;;;;;;9.25;5.45;;;23.10;71.10;;;;;;5036443;28;20037;-38
2021/08/11 03:02:41;;;;;;;6.70;5.28;;;23.10;71.10;;;;;;5036257;28;20037;-37
2021/08/11 03:05:07;;;;;;;6.15;4.90;;;23.00;70.90;;;;;;5036519;28;20037;-39
2021/08/11 03:07:34;;;;;;;9.30;5.40;;;23.00;71.00;;;;;;5036337;28;20038;-38
2021/08/11 03:09:59;;;;;;;7.07;5.43;;;23.00;71.00;;;;;;5036236;28;20107;-37
2021/08/11 03:12:26;;;;;;;7.28;5.25;;;23.00;70.90;;;;;;5036312;28;20077;-38
2021/08/11 03:14:52;;;;;;;7.60;5.35;;;23.00;70.90;;;;;;5036316;28;20033;-38
2021/08/11 03:17:17;;;;;;;8.30;5.25;;;23.00;70.90;;;;;;5036123;28;20414;-37
2021/08/11 03:19:44;;;;;;;8.32;5.70;;;22.90;70.90;;;;;;5036247;28;20039;-38
2021/08/11 03:22:11;;;;;;;7.20;5.45;;;23.00;71.00;;;;;;5035978;28;20116;-38
2021/08/11 03:24:37;;;;;;;6.85;5.65;;;22.90;71.00;;;;;;5035681;28;20040;-38
2021/08/11 03:27:03;;;;;;;8.38;5.25;;;22.90;71.10;;;;;;5036056;28;20333;-38
2021/08/11 03:29:29;;;;;;;7.70;4.80;;;22.90;71.30;;;;;;5035980;28;20121;-38
2021/08/11 03:31:54;;;;;;;8.50;5.88;;;22.90;71.20;;;;;;5035790;28;20104;-38
2021/08/11 03:34:20;;;;;;;9.23;5.38;;;22.90;71.30;;;;;;5035788;28;20326;-38
2021/08/11 03:36:46;;;;;;;5.47;4.90;;;22.90;71.40;;;;;;5035535;28;20080;-38
2021/08/11 03:39:12;;;;;;;13.68;5.95;;;22.90;71.50;;;;;;5036260;28;20030;-38
2021/08/11 03:41:37;;;;;;;6.47;5.25;;;22.90;71.50;;;;;;5040194;28;20429;-38
2021/08/11 03:44:04;;;;;;;6.13;5.50;;;22.90;71.60;;;;;;5039878;28;20091;-39
2021/08/11 03:46:31;;;;;;;7.25;5.05;;;22.90;71.70;;;;;;5039928;28;20036;-39
2021/08/11 03:48:56;;;;;;;6.53;5.68;;;22.90;71.80;;;;;;5040007;28;20079;-39
2021/08/11 03:51:22;;;;;;;10.60;6.10;;;22.90;71.90;;;;;;5039953;28;20411;-37
2021/08/11 03:53:48;;;;;;;9.20;6.18;;;22.90;72.00;;;;;;5039740;28;20063;-38
2021/08/11 03:56:14;;;;;;;7.07;5.70;;;23.00;72.00;;;;;;5039791;28;20064;-38
2021/08/11 03:58:39;;;;;;;8.27;5.80;;;23.00;72.00;;;;;;5039775;28;20091;-37
2021/08/11 04:01:06;;;;;;;8.02;5.72;;;23.00;72.00;;;;;;5039795;28;20064;-39
2021/08/11 04:03:31;;;;;;;11.90;5.22;;;23.00;72.00;;;;;;5039338;28;20100;-38
2021/08/11 04:05:57;;;;;;;6.68;5.35;;;23.00;72.00;;;;;;5039706;28;20492;-39
2021/08/11 04:08:23;;;;;;;8.77;6.10;;;23.10;72.10;;;;;;5039593;28;20460;-39
2021/08/11 04:10:49;;;;;;;6.70;5.95;;;23.10;72.00;;;;;;5039692;28;20029;-39
2021/08/11 04:13:16;;;;;;;11.52;5.90;;;23.10;71.90;;;;;;5039409;28;20021;-38
2021/08/11 04:15:45;;;;;;;10.20;6.18;;;23.20;71.90;;;;;;5039002;28;20049;-38
2021/08/11 04:18:11;;;;;;;7.80;5.73;;;23.20;71.90;;;;;;5038917;28;20017;-39
2021/08/11 04:20:38;;;;;;;6.95;5.95;;;23.30;71.90;;;;;;5038017;28;20556;-38
2021/08/11 04:23:05;;;;;;;9.38;5.80;;;23.30;71.90;;;;;;5038651;28;20036;-39
2021/08/11 04:25:35;;;;;;;7.63;5.50;;;23.30;72.00;;;;;;5039296;28;20307;-38
2021/08/11 04:28:02;;;;;;;9.15;5.75;;;23.30;71.90;;;;;;5038824;28;20025;-39
2021/08/11 04:30:27;;;;;;;9.55;5.88;;;23.40;71.90;;;;;;5038749;28;20116;-38
2021/08/11 04:32:53;;;;;;;7.22;4.90;;;23.50;72.00;;;;;;5038579;28;20121;-38
2021/08/11 04:35:18;;;;;;;5.90;5.30;;;23.50;72.00;;;;;;5038551;28;20072;-38
2021/08/11 04:37:44;;;;;;;8.55;5.88;;;23.50;71.90;;;;;;5038392;28;20049;-38
2021/08/11 04:40:10;;;;;;;7.47;5.78;;;23.60;72.00;;;;;;5038912;28;20083;-37
2021/08/11 04:42:36;;;;;;;7.82;5.25;;;23.60;71.20;;;;;;5038412;28;20064;-39
2021/08/11 04:45:03;;;;;;;6.78;5.43;;;23.70;71.00;;;;;;5038729;28;20057;-38
2021/08/11 04:47:28;;;;;;;7.47;5.35;;;23.70;70.40;;;;;;5038193;28;20021;-39
2021/08/11 04:49:54;;;;;;;8.10;5.95;;;23.80;70.40;;;;;;5038659;28;20420;-38
2021/08/11 04:52:20;;;;;;;7.75;5.43;;;23.80;70.00;;;;;;5037224;28;20033;-38
2021/08/11 04:54:45;;;;;;;6.10;5.35;;;23.80;70.00;;;;;;5038346;28;20033;-38
2021/08/11 04:57:11;;;;;;;5.97;5.03;;;23.80;69.80;;;;;;5037976;28;20029;-38
2021/08/11 04:59:37;;;;;;;6.97;5.00;;;23.90;69.50;;;;;;5038122;28;20072;-38
2021/08/11 05:02:03;;;;;;;6.45;5.28;;;23.90;69.30;;;;;;5038234;28;20021;-39
2021/08/11 05:04:29;;;;;;;6.72;5.40;;;23.90;69.10;;;;;;5038363;28;20044;-38
2021/08/11 05:06:54;;;;;;;8.98;5.60;;;23.90;69.10;;;;;;5038100;28;20021;-39
2021/08/11 05:09:20;;;;;;;6.88;5.15;;;23.90;69.00;;;;;;5038120;28;20313;-38
2021/08/11 05:11:46;;;;;;;7.68;5.20;;;23.90;68.80;;;;;;5038190;28;20383;-38
2021/08/11 05:14:11;;;;;;;8.38;5.28;;;24.00;68.80;;;;;;5038083;28;20037;-38
2021/08/11 05:16:37;;;;;;;10.13;5.78;;;24.00;68.60;;;;;;5037516;28;20053;-38
2021/08/11 05:19:03;;;;;;;8.68;6.35;;;24.00;68.40;;;;;;5037935;28;20064;-41
2021/08/11 05:21:28;;;;;;;11.55;5.13;;;24.00;68.50;;;;;;5037988;28;20079;-39
2021/08/11 05:23:54;;;;;;;6.97;5.72;;;24.10;68.50;;;;;;5037892;28;20025;-39
2021/08/11 05:26:20;;;;;;;8.55;6.10;;;24.10;68.70;;;;;;5037439;28;20333;-38
2021/08/11 05:28:46;;;;;;;8.50;5.45;;;24.10;68.50;;;;;;5037430;28;20054;-38
2021/08/11 05:31:13;;;;;;;5.63;4.60;;;24.20;68.50;;;;;;5037783;28;20356;-38
2021/08/11 05:33:39;;;;;;;8.30;5.18;;;24.20;68.60;;;;;;5037453;28;20032;-38
2021/08/11 05:36:05;;;;;;;6.55;5.43;;;24.20;68.70;;;;;;5037332;28;20274;-38
2021/08/11 05:38:31;;;;;;;8.10;5.93;;;24.20;68.70;;;;;;5036827;28;20021;-38
2021/08/11 05:40:56;;;;;;;6.72;5.20;;;24.30;68.70;;;;;;5037547;28;20030;-38
2021/08/11 05:43:22;;;;;;;6.03;5.32;;;24.30;68.60;;;;;;5037213;28;20116;-38
2021/08/11 05:45:48;;;;;;;9.13;5.82;;;24.40;68.50;;;;;;5037610;28;20382;-38
2021/08/11 05:48:13;;;;;;;7.65;5.93;;;24.40;68.40;;;;;;5036985;28;20029;-39
2021/08/11 05:50:39;;;;;;;9.18;5.82;;;24.40;68.30;;;;;;5037662;28;20133;-39
2021/08/11 05:53:05;;;;;;;6.63;5.47;;;24.50;68.30;;;;;;5037289;28;20025;-38
2021/08/11 05:55:30;;;;;;;17.13;6.97;;;24.50;68.40;;;;;;5037304;28;20124;-39
2021/08/11 05:57:56;;;;;;;7.60;5.35;;;24.50;68.50;;;;;;5037285;28;20314;-38
2021/08/11 06:00:22;;;;;;;9.18;6.57;;;24.60;68.60;;;;;;5037146;28;20095;-40
2021/08/11 06:02:47;;;;;;;12.13;6.15;;;24.60;68.80;;;;;;5036805;28;20068;-39
2021/08/11 06:05:13;;;;;;;9.88;6.05;;;24.60;69.00;;;;;;5037191;28;20121;-38
2021/08/11 06:07:39;;;;;;;9.02;6.07;;;24.70;69.30;;;;;;5036773;28;20358;-39
2021/08/11 06:10:07;;;;;;;7.22;5.47;;;24.80;69.30;;;;;;5036768;28;20137;-38
2021/08/11 06:12:33;;;;;;;8.15;5.63;;;24.80;68.90;;;;;;5036913;28;20052;-38
2021/08/11 06:14:59;;;;;;;8.95;6.50;;;24.90;68.80;;;;;;5036746;28;20150;-38
2021/08/11 06:17:25;;;;;;;8.35;5.95;;;24.90;68.60;;;;;;5036577;28;20147;-38
2021/08/11 06:19:50;;;;;;;7.97;5.80;;;25.00;68.40;;;;;;5036896;28;20045;-38
2021/08/11 06:22:17;;;;;;;16.52;7.47;;;25.00;68.40;;;;;;5036604;28;20104;-38
2021/08/11 06:24:43;;;;;;;9.65;5.65;;;25.10;68.40;;;;;;5036679;28;20107;-39
2021/08/11 06:27:09;;;;;;;15.52;7.18;;;25.10;68.30;;;;;;5036471;28;20029;-38
2021/08/11 06:29:34;;;;;;;11.05;6.43;;;25.20;68.30;;;;;;5036447;28;20433;-38
2021/08/11 06:32:02;;;;;;;10.20;6.65;;;25.20;67.90;;;;;;5038315;28;20040;-37
2021/08/11 06:34:28;;;;;;;11.20;6.50;;;25.20;68.00;;;;;;5036221;28;20045;-40
2021/08/11 06:36:54;;;;;;;8.18;6.28;;;25.20;68.20;;;;;;5035456;28;20303;-40
2021/08/11 06:39:20;;;;;;;8.25;6.35;;;25.30;68.30;;;;;;5036016;28;20045;-39
2021/08/11 06:41:46;;;;;;;17.58;7.47;;;25.40;68.20;;;;;;5035660;28;20405;-39
2021/08/11 06:44:11;;;;;;;11.13;6.53;;;25.40;67.80;;;;;;5036049;28;20049;-38
2021/08/11 06:46:37;;;;;;;8.00;6.78;;;25.50;68.10;;;;;;5036037;28;20351;-38
2021/08/11 06:49:03;;;;;;;7.82;6.15;;;25.50;68.00;;;;;;5036200;28;20021;-39
2021/08/11 06:51:28;;;;;;;9.32;5.57;;;25.60;68.30;;;;;;5036092;28;20401;-38
2021/08/11 06:53:54;;;;;;;7.88;6.28;;;25.70;68.20;;;;;;5035412;28;20414;-38
2021/08/11 06:56:20;;;;;;;8.70;5.85;;;25.70;67.70;;;;;;5035785;28;20041;-38
2021/08/11 06:58:45;;;;;;;8.93;6.13;;;25.80;67.90;;;;;;5035627;28;20034;-38
2021/08/11 07:01:11;;;;;;;13.95;6.47;;;25.90;67.70;;;;;;5035894;28;20036;-38
2021/08/11 07:03:37;;;;;;;14.52;6.55;;;26.00;67.50;;;;;;5035304;28;20025;-38
2021/08/11 07:06:03;;;;;;;9.27;6.55;;;26.00;68.30;;;;;;5035672;28;20025;-38
2021/08/11 07:08:29;;;;;;;12.40;7.03;;;26.10;67.20;;;;;;5035582;28;20384;-39
2021/08/11 07:10:55;;;;;;;9.18;6.10;;;26.10;66.80;;;;;;5035920;28;20109;-40
2021/08/11 07:13:21;;;;;;;11.55;6.15;;;26.20;66.90;;;;;;5035523;28;20040;-38
2021/08/11 07:15:47;;;;;;;7.82;5.65;;;26.20;67.30;;;;;;5034600;28;20132;-39
2021/08/11 07:18:16;;;;;;;7.72;6.20;;;26.30;67.20;;;;;;5035500;28;20037;-38
2021/08/11 07:20:42;;;;;;;9.88;5.85;;;26.30;66.80;;;;;;5036090;28;20037;-38
2021/08/11 07:23:08;;;;;;;16.83;6.95;;;26.40;66.60;;;;;;5035799;28;20056;-38
2021/08/11 07:25:34;;;;;;;9.85;6.60;;;26.40;66.70;;;;;;5035753;28;20076;-38
2021/08/11 07:27:59;;;;;;;8.30;5.78;;;26.50;66.40;;;;;;5034628;28;20030;-39
2021/08/11 07:30:25;;;;;;;7.38;6.15;;;26.60;66.30;;;;;;5035604;28;20076;-39
2021/08/11 07:32:51;;;;;;;7.25;5.97;;;26.60;66.60;;;;;;5035283;28;20113;-38
2021/08/11 07:35:17;;;;;;;9.20;6.03;;;26.70;66.10;;;;;;5047375;28;20392;-39
2021/08/11 07:37:53;;;;;;;12.80;8.00;;;26.70;66.30;;;;;;5054923;28;20025;-39
2021/08/11 07:40:21;;;;;;;10.13;6.18;;;26.80;66.20;;;;;;5050227;28;20060;-39
2021/08/11 07:42:47;;;;;;;9.05;6.45;;;26.80;66.10;;;;;;5054609;28;20044;-38
2021/08/11 07:45:14;;;;;;;12.07;8.48;;;26.90;65.90;;;;;;5054612;28;20132;-38
2021/08/11 07:47:42;;;;;;;11.02;7.50;;;27.00;65.80;;;;;;5054775;28;20029;-38
2021/08/11 07:50:09;;;;;;;9.20;6.78;;;27.00;65.40;;;;;;5054428;28;20099;-38
2021/08/11 07:52:35;;;;;;;12.63;6.90;;;27.10;65.10;;;;;;5054726;28;20033;-38
2021/08/11 07:55:01;;;;;;;9.55;6.72;;;27.10;64.90;;;;;;5054356;28;20409;-38
2021/08/11 07:57:26;;;;;;;10.32;6.90;;;27.20;64.70;;;;;;5055063;28;20029;-38
2021/08/11 07:59:52;;;;;;;14.68;6.68;;;27.20;64.60;;;;;;5054423;28;20029;-38
2021/08/11 08:02:18;;;;;;;9.95;6.97;;;27.20;64.50;;;;;;5054559;28;20036;-39
2021/08/11 08:04:43;;;;;;;8.85;6.65;;;27.30;64.60;;;;;;5054505;28;20127;-38
2021/08/11 08:07:09;;;;;;;9.32;6.43;;;27.30;64.50;;;;;;5036892;28;20029;-38
2021/08/11 08:09:35;;;;;;;8.13;6.35;;;27.30;64.30;;;;;;5034434;28;20025;-39
2021/08/11 08:12:01;;;;;;;7.25;6.35;;;27.40;64.50;;;;;;5035010;28;20421;-38
2021/08/11 08:14:26;;;;;;;9.65;6.25;;;27.40;64.60;;;;;;5034441;28;20413;-38
2021/08/11 08:16:52;;;;;;;10.45;6.30;;;27.40;64.30;;;;;;5034065;28;20081;-38
2021/08/11 08:19:18;;;;;;;8.98;6.80;;;27.50;64.30;;;;;;5033807;28;20326;-39
2021/08/11 08:21:44;;;;;;;10.50;6.38;;;27.50;64.10;;;;;;5034401;28;20115;-38
2021/08/11 08:24:10;;;;;;;8.27;6.43;;;27.50;64.10;;;;;;5034126;28;20036;-39
2021/08/11 08:26:36;;;;;;;10.93;6.18;;;27.60;64.20;;;;;;5035485;28;20028;-39
2021/08/11 08:29:03;;;;;;;9.93;6.35;;;27.60;64.40;;;;;;5037841;28;20456;-38
2021/08/11 08:31:28;;;;;;;9.85;6.57;;;27.70;64.20;;;;;;5038450;28;20422;-39
2021/08/11 08:33:54;;;;;;;10.70;7.50;;;27.70;64.30;;;;;;5037975;28;20026;-38
2021/08/11 08:36:20;;;;;;;13.43;7.22;;;27.80;64.10;;;;;;5037857;28;20087;-38
2021/08/11 08:38:46;;;;;;;10.90;6.80;;;27.80;63.90;;;;;;5037290;28;20030;-38
2021/08/11 08:41:12;;;;;;;8.05;5.63;;;27.80;63.60;;;;;;5038288;28;20491;-38
2021/08/11 08:43:38;;;;;;;8.55;6.78;;;27.90;63.30;;;;;;5037821;28;20029;-38
2021/08/11 08:46:04;;;;;;;10.32;5.45;;;27.90;63.10;;;;;;5038191;28;20076;-40
2021/08/11 08:48:32;;;;;;;8.30;6.10;;;27.90;62.90;;;;;;5037797;28;20079;-39
2021/08/11 08:50:58;;;;;;;10.73;5.57;;;27.90;62.40;;;;;;5038044;28;20338;-39
2021/08/11 08:53:24;;;;;;;6.82;4.97;;;28.00;62.30;;;;;;5037688;28;20029;-38
2021/08/11 08:55:52;;;;;;;8.63;4.90;;;28.00;62.30;;;;;;5038039;28;20540;-39
2021/08/11 08:58:18;;;;;;;7.82;4.68;;;28.00;61.80;;;;;;5037709;28;20021;-39
2021/08/11 09:00:46;;;;;;;8.45;5.28;;;28.10;61.80;;;;;;5037782;28;20060;-38
2021/08/11 09:03:11;;;;;;;6.22;5.25;;;28.10;61.80;;;;;;5037368;28;20040;-38
2021/08/11 09:05:37;;;;;;;7.85;4.93;;;28.20;61.80;;;;;;5037426;28;20029;-39
2021/08/11 09:08:03;;;;;;;8.07;4.68;;;28.20;61.70;;;;;;5037820;28;20071;-39
2021/08/11 09:10:30;;;;;;;7.93;4.40;;;28.30;61.80;;;;;;5037371;28;20045;-38
2021/08/11 09:12:59;;;;;;;7.55;5.68;;;28.30;62.00;;;;;;5037319;28;20025;-38
2021/08/11 09:15:34;;;;;;;10.25;5.03;;;28.30;62.10;;;;;;5036505;28;20442;-39
2021/08/11 09:18:20;;;;;;;10.43;5.22;;;28.40;62.00;;;;;;5037395;28;20029;-38
2021/08/11 09:21:02;;;;;;;8.40;5.00;;;28.50;61.70;;;;;;5037258;28;20382;-39
2021/08/11 09:23:37;;;;;;;9.52;4.60;;;28.50;61.60;;;;;;5037318;28;20113;-39
2021/08/11 09:26:06;;;;;;;6.22;4.97;;;28.60;61.20;;;;;;5037543;28;20439;-39
2021/08/11 09:28:34;;;;;;;6.78;4.68;;;28.60;61.30;;;;;;5037872;28;20036;-39
2021/08/11 09:31:00;;;;;;;8.35;4.97;;;28.70;60.80;;;;;;5037870;28;20029;-38
2021/08/11 09:33:26;;;;;;;6.25;4.80;;;28.80;60.50;;;;;;5036431;28;20069;-39
2021/08/11 09:35:53;;;;;;;6.35;4.97;;;28.80;60.30;;;;;;5037574;28;20360;-39
2021/08/11 09:38:20;;;;;;;8.70;4.35;;;28.80;60.00;;;;;;5036900;28;20029;-39
2021/08/11 09:40:47;;;;;;;6.53;4.95;;;28.90;59.90;;;;;;5037888;28;20033;-40
2021/08/11 09:43:16;;;;;;;5.28;4.50;;;28.90;59.50;;;;;;5037387;28;20383;-39
2021/08/11 09:45:49;;;;;;;5.00;4.50;;;28.90;59.70;;;;;;5037657;28;20061;-40
2021/08/11 09:48:16;;;;;;;8.10;4.70;;;29.00;60.20;;;;;;5037268;28;20064;-38
2021/08/11 09:51:01;;;;;;;9.55;4.95;;;29.00;59.70;;;;;;5037168;28;20030;-39
2021/08/11 09:53:29;;;;;;;5.90;4.18;;;29.10;59.40;;;;;;5035016;28;20033;-39
2021/08/11 09:56:04;;;;;;;7.68;4.65;;;29.20;59.70;;;;;;5037053;28;20106;-38
2021/08/11 09:58:33;;;;;;;8.55;4.47;;;29.20;59.30;;;;;;5037165;28;20389;-39
2021/08/11 10:00:59;;;;;;;7.03;4.50;;;29.20;59.10;;;;;;5036726;28;20138;-39
2021/08/11 10:03:25;;;;;;;5.43;4.30;;;29.30;58.50;;;;;;5036744;28;20137;-38
2021/08/11 10:05:52;;;;;;;8.82;5.03;;;29.30;58.50;;;;;;5037175;28;20082;-39
2021/08/11 10:08:29;;;;;;;7.95;4.70;;;29.30;58.10;;;;;;5036935;28;20025;-39
2021/08/11 10:10:56;;;;;;;7.47;4.35;;;29.40;58.50;;;;;;5037425;28;20034;-39
2021/08/11 10:13:23;;;;;;;6.95;4.40;;;29.40;58.20;;;;;;5036658;28;20041;-39
2021/08/11 10:15:49;;;;;;;5.97;4.57;;;29.50;58.10;;;;;;5036476;28;20077;-39
2021/08/11 10:18:26;;;;;;;5.50;4.40;;;29.50;58.00;;;;;;5036690;28;20421;-39
2021/08/11 10:20:56;;;;;;;7.88;4.55;;;29.50;57.20;;;;;;5037046;28;20033;-39
2021/08/11 10:23:22;;;;;;;6.47;4.80;;;29.60;57.70;;;;;;5036761;28;20036;-39
2021/08/11 10:25:50;;;;;;;6.35;4.45;;;29.60;57.40;;;;;;5036604;28;20124;-39
2021/08/11 10:28:22;;;;;;;8.30;4.88;;;29.70;57.40;;;;;;5036681;28;20029;-39
2021/08/11 10:30:49;;;;;;;6.05;4.65;;;29.70;57.30;;;;;;5036750;28;20033;-39
2021/08/11 10:33:16;;;;;;;6.05;4.40;;;29.70;57.60;;;;;;5036377;28;20100;-39
2021/08/11 10:35:44;;;;;;;5.47;4.50;;;29.80;57.00;;;;;;5036813;28;20034;-39
2021/08/11 10:38:10;;;;;;;5.15;4.40;;;29.80;56.80;;;;;;5036229;28;20033;-39
2021/08/11 10:40:38;;;;;;;7.63;4.57;;;29.90;56.70;;;;;;5035995;28;20504;-38
2021/08/11 10:43:04;;;;;;;8.35;4.63;;;29.90;56.30;;;;;;5036384;28;20029;-38
2021/08/11 10:45:30;;;;;;;10.50;6.13;;;30.00;56.40;;;;;;5035844;28;20205;-38
2021/08/11 10:47:56;;;;;;;11.38;4.28;;;30.10;56.20;;;;;;5036279;28;20033;-39
2021/08/11 10:50:22;;;;;;;9.43;4.63;;;30.10;55.40;;;;;;5035464;28;20295;-39
2021/08/11 10:53:06;;;;;;;9.75;4.70;;;30.10;55.10;;;;;;5036201;28;20034;-39
2021/08/11 10:55:44;;;;;;;11.55;4.93;;;30.20;55.40;;;;;;5035737;28;20091;-39
2021/08/11 10:58:10;;;;;;;8.80;4.15;;;30.30;54.90;;;;;;5035578;28;20037;-39
2021/08/11 11:00:40;;;;;;;6.35;4.00;;;30.40;55.20;;;;;;5035937;28;20033;-39
2021/08/11 11:03:06;;;;;;;8.15;4.35;;;30.50;55.10;;;;;;5035764;28;20025;-38
2021/08/11 11:05:33;;;;;;;6.43;4.25;;;30.50;54.70;;;;;;5035520;28;20380;-39
2021/08/11 11:08:14;;;;;;;6.10;4.20;;;30.60;54.60;;;;;;5035607;28;20452;-38
2021/08/11 11:10:42;;;;;;;6.03;4.18;;;30.70;54.10;;;;;;5036061;28;20054;-37
2021/08/11 11:13:23;;;;;;;8.65;4.15;;;30.70;53.80;;;;;;5035817;28;20021;-39
2021/08/11 11:15:51;;;;;;;7.03;3.70;;;30.80;53.70;;;;;;5035238;28;20057;-39
2021/08/11 11:18:21;;;;;;;5.95;3.65;;;30.90;53.40;;;;;;5035744;28;20087;-39
2021/08/11 11:20:56;;;;;;;6.85;4.13;;;30.90;53.00;;;;;;5035616;28;20120;-39
2021/08/11 11:23:40;;;;;;;4.70;3.80;;;31.00;53.20;;;;;;5035435;28;20025;-39
2021/08/11 11:26:10;;;;;;;11.25;3.95;;;31.00;52.60;;;;;;5035940;28;20033;-39
2021/08/11 11:28:56;;;;;;;6.03;3.65;;;31.10;52.00;;;;;;5035466;28;20049;-39
2021/08/11 11:31:30;;;;;;;4.78;3.78;;;31.20;52.40;;;;;;5035769;28;20364;-39
2021/08/11 11:34:21;;;;;;;5.43;3.83;;;31.20;52.10;;;;;;5035710;28;20022;-38
2021/08/11 11:36:56;;;;;;;5.15;3.20;;;31.30;51.40;;;;;;5035458;28;20033;-39
2021/08/11 11:39:29;;;;;;;4.90;3.70;;;31.40;51.50;;;;;;5044285;28;20028;-39
2021/08/11 11:42:07;;;;;;;6.57;3.83;;;31.50;52.10;;;;;;5053534;28;20417;-38
2021/08/11 11:44:59;;;;;;;4.57;3.72;;;31.60;51.80;;;;;;5054715;28;20037;-39
2021/08/11 11:50:42;;;;;;;4.22;3.33;;;31.70;51.00;;;;;;5054874;28;20037;-39
2021/08/11 11:53:11;;;;;;;4.85;3.72;;;31.80;51.20;;;;;;5053237;28;20033;-39
2021/08/11 11:55:41;;;;;;;6.00;3.53;;;31.90;50.60;;;;;;5055049;28;20048;-39
2021/08/11 11:58:15;;;;;;;8.73;3.72;;;32.00;49.60;;;;;;5054323;28;20444;-39
2021/08/11 12:01:01;;;;;;;5.05;3.20;;;32.10;49.10;;;;;;5055844;28;20044;-39
2021/08/11 12:03:45;;;;;;;5.28;3.50;;;32.20;49.60;;;;;;5057893;28;20044;-38
2021/08/11 12:06:12;;;;;;;5.47;3.78;;;32.30;48.90;;;;;;5058870;28;20029;-39
2021/08/11 12:08:38;;;;;;;6.93;4.40;;;32.40;49.00;;;;;;5058528;28;20025;-39
2021/08/11 12:11:07;;;;;;;4.95;3.60;;;32.40;48.40;;;;;;5059088;28;20162;-38
2021/08/11 12:13:42;;;;;;;6.68;3.55;;;32.50;48.60;;;;;;5058249;28;20025;-39
2021/08/11 12:16:09;;;;;;;6.63;3.97;;;32.60;48.80;;;;;;5058179;28;20045;-39
2021/08/11 12:18:34;;;;;;;8.48;3.80;;;32.60;48.30;;;;;;5058205;28;20425;-40
2021/08/11 12:21:04;;;;;;;7.72;3.78;;;32.60;48.70;;;;;;5057339;28;20119;-39
2021/08/11 12:23:31;;;;;;;9.50;3.20;;;32.70;48.10;;;;;;5057811;28;20238;-39
2021/08/11 12:26:18;;;;;;;11.05;3.80;;;32.70;47.70;;;;;;5058493;28;20092;-40
2021/08/11 12:28:46;;;;;;;8.68;3.50;;;32.80;46.70;;;;;;5058158;28;20026;-38
2021/08/11 12:31:23;;;;;;;5.85;3.53;;;32.90;45.90;;;;;;5058784;28;20202;-40
2021/08/11 12:33:51;;;;;;;4.82;3.53;;;33.10;46.90;;;;;;5058714;28;20136;-39
2021/08/11 12:36:22;;;;;;;5.47;3.50;;;33.20;46.60;;;;;;5058653;28;20101;-40
2021/08/11 12:39:08;;;;;;;9.60;3.58;;;33.30;45.80;;;;;;5058178;28;20024;-39
2021/08/11 12:41:36;;;;;;;8.80;3.78;;;33.40;45.70;;;;;;5058343;28;20041;-39
2021/08/11 12:44:18;;;;;;;6.97;3.63;;;33.50;45.90;;;;;;5058224;28;20025;-40
2021/08/11 12:46:44;;;;;;;8.18;3.60;;;33.70;45.90;;;;;;5058010;28;20029;-39
2021/08/11 12:49:16;;;;;;;14.02;3.88;;;33.80;45.30;;;;;;5058101;28;20151;-40
2021/08/11 12:51:42;;;;;;;9.80;3.50;;;33.90;44.40;;;;;;5056999;28;20025;-39
2021/08/11 12:54:08;;;;;;;7.30;3.60;;;34.00;44.10;;;;;;5057619;28;20461;-39